createdAt,value
2022-10-08T00:01:31.313Z,97586.56
2022-10-08T00:04:00.067Z,97586.56
2022-10-08T00:06:31.235Z,97588.38
2022-10-08T00:09:02.270Z,97591.19
2022-10-08T00:11:35.569Z,97575.25
2022-10-08T00:14:04.954Z,97582.53
2022-10-08T00:16:35.166Z,97577.22
2022-10-08T00:19:05.846Z,97582.53
2022-10-08T00:21:36.017Z,97568.56
2022-10-08T00:24:06.065Z,97562.44
2022-10-08T00:26:42.567Z,97562.56
2022-10-08T00:29:13.611Z,97563.56
2022-10-08T00:31:44.426Z,97567.88
2022-10-08T00:34:16.785Z,97569.72
2022-10-08T00:36:45.739Z,97564.56
2022-10-08T00:39:15.317Z,97556.59
2022-10-08T00:41:46.980Z,97544.28
2022-10-08T00:44:55.031Z,97549.75
2022-10-08T00:47:31.242Z,97546.28
2022-10-08T00:50:01.356Z,97544.59
2022-10-08T00:52:33.620Z,97534.13
2022-10-08T00:55:06.390Z,97544.75
2022-10-08T00:57:37.196Z,97541.41
2022-10-08T01:00:08.657Z,97542.41
2022-10-08T01:02:37.036Z,97544.22
2022-10-08T01:05:06.859Z,97539.88
2022-10-08T01:07:40.390Z,97533.06
2022-10-08T01:10:13.134Z,97534.88
2022-10-08T01:12:48.367Z,97524.25
2022-10-08T01:15:23.624Z,97527.19
2022-10-08T01:17:59.751Z,97533.34
2022-10-08T01:20:46.043Z,97527.19
2022-10-08T01:23:41.205Z,97521.22
2022-10-08T01:26:22.773Z,97525.84
2022-10-08T01:28:57.200Z,97522.22
2022-10-08T01:31:29.154Z,97515.22
2022-10-08T01:34:00.407Z,97515.53
2022-10-08T01:36:33.873Z,97512.72
2022-10-08T01:39:06.325Z,97514.53
2022-10-08T01:41:35.242Z,97523.50
2022-10-08T01:44:07.819Z,97520.16
2022-10-08T01:46:38.281Z,97509.53
2022-10-08T01:49:10.442Z,97509.53
2022-10-08T01:51:42.318Z,97516.81
2022-10-08T01:54:11.820Z,97515.16
2022-10-08T01:56:41.165Z,97516.81
2022-10-08T01:59:14.294Z,97520.31
2022-10-08T02:01:53.594Z,97516.97
2022-10-08T02:04:34.581Z,97514.47
2022-10-08T02:07:07.370Z,97514.47
2022-10-08T02:09:38.226Z,97510.13
2022-10-08T02:12:07.402Z,97511.13
2022-10-08T02:14:39.093Z,97506.81
2022-10-08T02:17:17.117Z,97509.44
2022-10-08T02:19:50.463Z,97505.97
2022-10-08T02:22:20.811Z,97503.31
2022-10-08T02:24:53.578Z,97503.47
2022-10-08T02:27:27.733Z,97512.41
2022-10-08T02:30:04.049Z,97500.13
2022-10-08T02:32:36.775Z,97504.59
2022-10-08T02:35:09.081Z,97496.63
2022-10-08T02:37:41.364Z,97500.13
2022-10-08T02:40:12.639Z,97500.41
2022-10-08T02:42:44.750Z,97502.25
2022-10-08T02:45:17.919Z,97493.44
2022-10-08T02:47:48.933Z,97503.22
2022-10-08T02:50:21.408Z,97497.91
2022-10-08T02:52:51.045Z,97496.25
2022-10-08T02:55:25.679Z,97498.06
2022-10-08T02:57:59.036Z,97498.38
2022-10-08T03:00:35.302Z,97503.53
2022-10-08T03:03:09.487Z,97502.69
2022-10-08T03:05:39.858Z,97506.31
2022-10-08T03:08:09.773Z,97511.63
2022-10-08T03:10:39.520Z,97515.25
2022-10-08T03:13:08.924Z,97516.09
2022-10-08T03:15:39.865Z,97504.66
2022-10-08T03:18:10.258Z,97503.81
2022-10-08T03:20:45.462Z,97512.75
2022-10-08T03:23:15.828Z,97514.56
2022-10-08T03:25:44.242Z,97505.94
2022-10-08T03:28:12.952Z,97502.44
2022-10-08T03:30:42.894Z,97505.09
2022-10-08T03:33:11.456Z,97512.22
2022-10-08T03:35:45.690Z,97510.56
2022-10-08T03:38:15.423Z,97509.72
2022-10-08T03:40:44.039Z,97509.88
2022-10-08T03:43:12.495Z,97507.22
2022-10-08T03:45:50.682Z,97508.03
2022-10-08T03:48:19.751Z,97516.16
2022-10-08T03:50:53.019Z,97505.53
2022-10-08T03:53:21.702Z,97517.13
2022-10-08T03:55:50.617Z,97519.78
2022-10-08T03:58:19.242Z,97528.72
2022-10-08T04:00:59.056Z,97522.72
2022-10-08T04:03:28.288Z,97521.06
2022-10-08T04:05:57.080Z,97528.03
2022-10-08T04:08:25.845Z,97526.38
2022-10-08T04:10:54.547Z,97533.50
2022-10-08T04:13:23.395Z,97529.16
2022-10-08T04:15:51.861Z,97535.31
2022-10-08T04:18:21.547Z,97525.69
2022-10-08T04:20:50.012Z,97524.16
2022-10-08T04:23:18.537Z,97525.00
2022-10-08T04:25:50.832Z,97517.03
2022-10-08T04:28:19.705Z,97517.03
2022-10-08T04:30:56.358Z,97522.50
2022-10-08T04:33:26.418Z,97522.34
2022-10-08T04:35:59.731Z,97525.97
2022-10-08T04:38:29.083Z,97517.34
2022-10-08T04:41:05.295Z,97529.75
2022-10-08T04:43:34.296Z,97525.28
2022-10-08T04:46:03.188Z,97535.22
2022-10-08T04:48:32.995Z,97541.34
2022-10-08T04:51:06.849Z,97539.81
2022-10-08T04:53:38.050Z,97538.00
2022-10-08T04:56:11.356Z,97536.34
2022-10-08T04:58:39.909Z,97539.81
2022-10-08T05:01:11.008Z,97531.03
2022-10-08T05:03:41.992Z,97536.47
2022-10-08T05:06:11.145Z,97540.13
2022-10-08T05:08:39.937Z,97546.41
2022-10-08T05:11:08.933Z,97537.47
2022-10-08T05:13:37.786Z,97548.06
2022-10-08T05:16:07.193Z,97540.25
2022-10-08T05:18:36.376Z,97544.72
2022-10-08T05:21:08.714Z,97539.44
2022-10-08T05:23:37.375Z,97541.38
2022-10-08T05:26:13.338Z,97545.72
2022-10-08T05:28:41.899Z,97544.88
2022-10-08T05:31:10.644Z,97539.72
2022-10-08T05:33:39.456Z,97546.84
2022-10-08T05:36:10.661Z,97558.28
2022-10-08T05:38:39.212Z,97564.56
2022-10-08T05:41:13.513Z,97560.94
2022-10-08T05:43:42.692Z,97558.41
2022-10-08T05:46:11.277Z,97560.09
2022-10-08T05:48:40.575Z,97565.53
2022-10-08T05:51:12.267Z,97571.97
2022-10-08T05:53:41.777Z,97564.84
2022-10-08T05:56:11.923Z,97557.72
2022-10-08T05:58:41.570Z,97557.88
2022-10-08T06:01:13.457Z,97555.22
2022-10-08T06:03:42.406Z,97568.63
2022-10-08T06:06:13.518Z,97567.78
2022-10-08T06:08:42.342Z,97570.59
2022-10-08T06:11:10.856Z,97574.22
2022-10-08T06:13:39.359Z,97570.59
2022-10-08T06:16:10.036Z,97582.16
2022-10-08T06:18:41.215Z,97583.97
2022-10-08T06:21:12.480Z,97588.44
2022-10-08T06:23:45.832Z,97592.91
2022-10-08T06:26:14.589Z,97598.41
2022-10-08T06:28:43.111Z,97599.22
2022-10-08T06:31:12.812Z,97612.47
2022-10-08T06:33:42.260Z,97608.81
2022-10-08T06:36:17.272Z,97616.13
2022-10-08T06:38:50.056Z,97602.03
2022-10-08T06:41:18.631Z,97599.38
2022-10-08T06:43:47.637Z,97601.34
2022-10-08T06:46:16.463Z,97595.88
2022-10-08T06:48:45.392Z,97598.69
2022-10-08T06:51:18.879Z,97604.97
2022-10-08T06:53:52.985Z,97594.22
2022-10-08T06:56:22.017Z,97592.53
2022-10-08T06:58:50.778Z,97603.97
2022-10-08T07:01:22.595Z,97612.06
2022-10-08T07:03:52.535Z,97621.84
2022-10-08T07:06:22.637Z,97621.69
2022-10-08T07:08:52.960Z,97611.09
2022-10-08T07:11:22.299Z,97619.88
2022-10-08T07:13:50.869Z,97617.38
2022-10-08T07:16:21.613Z,97614.03
2022-10-08T07:18:51.703Z,97620.88
2022-10-08T07:21:23.057Z,97626.59
2022-10-08T07:23:51.738Z,97627.00
2022-10-08T07:26:21.750Z,97632.31
2022-10-08T07:28:52.320Z,97631.47
2022-10-08T07:31:22.461Z,97635.78
2022-10-08T07:33:51.608Z,97637.47
2022-10-08T07:36:21.879Z,97626.84
2022-10-08T07:38:55.803Z,97630.34
2022-10-08T07:41:25.036Z,97636.78
2022-10-08T07:43:54.669Z,97642.22
2022-10-08T07:46:23.517Z,97645.56
2022-10-08T07:48:52.002Z,97646.69
2022-10-08T07:51:21.499Z,97645.84
2022-10-08T07:53:50.181Z,97652.81
2022-10-08T07:56:21.817Z,97653.38
2022-10-08T07:58:50.971Z,97656.84
2022-10-08T08:01:22.484Z,97652.38
2022-10-08T08:03:55.264Z,97656.84
2022-10-08T08:06:25.215Z,97668.16
2022-10-08T08:08:55.365Z,97674.28
2022-10-08T08:11:26.302Z,97672.44
2022-10-08T08:13:54.946Z,97669.50
2022-10-08T08:16:26.368Z,97673.97
2022-10-08T08:18:56.218Z,97670.63
2022-10-08T08:21:26.667Z,97668.44
2022-10-08T08:23:57.527Z,97677.59
2022-10-08T08:26:29.350Z,97684.72
2022-10-08T08:29:00.883Z,97686.25
2022-10-08T08:31:30.940Z,97685.28
2022-10-08T08:34:01.648Z,97686.94
2022-10-08T08:36:31.881Z,97680.13
2022-10-08T08:39:01.383Z,97690.72
2022-10-08T08:41:46.879Z,97685.97
2022-10-08T08:44:20.012Z,97680.13
2022-10-08T08:46:53.096Z,97685.13
2022-10-08T08:49:28.336Z,97686.81
2022-10-08T08:51:58.354Z,97679.56
2022-10-08T08:54:27.103Z,97682.06
2022-10-08T08:56:57.322Z,97680.38
2022-10-08T08:59:28.178Z,97681.22
2022-10-08T09:01:59.539Z,97680.94
2022-10-08T09:04:35.131Z,97679.13
2022-10-08T09:07:07.458Z,97677.31
2022-10-08T09:09:39.794Z,97686.09
2022-10-08T09:12:20.769Z,97685.97
2022-10-08T09:14:54.537Z,97685.97
2022-10-08T09:17:30.151Z,97692.94
2022-10-08T09:20:00.738Z,97681.34
2022-10-08T09:22:31.316Z,97685.66
2022-10-08T09:25:01.601Z,97682.03
2022-10-08T09:27:50.086Z,97692.50
2022-10-08T09:30:30.935Z,97698.50
2022-10-08T09:33:01.852Z,97691.53
2022-10-08T09:35:32.869Z,97688.72
2022-10-08T09:38:05.714Z,97695.72
2022-10-08T09:40:35.051Z,97699.19
2022-10-08T09:43:16.823Z,97701.84
2022-10-08T09:45:47.266Z,97698.34
2022-10-08T09:48:21.346Z,97700.03
2022-10-08T09:50:56.697Z,97701.72
2022-10-08T09:53:28.419Z,97696.25
2022-10-08T09:55:59.703Z,97694.44
2022-10-08T09:58:32.285Z,97691.78
2022-10-08T10:01:07.071Z,97686.34
2022-10-08T10:03:36.987Z,97683.69
2022-10-08T10:06:06.226Z,97695.00
2022-10-08T10:08:52.114Z,97693.19
2022-10-08T10:11:25.910Z,97691.38
2022-10-08T10:13:56.301Z,97685.91
2022-10-08T10:16:26.903Z,97691.22
2022-10-08T10:18:58.996Z,97691.22
2022-10-08T10:21:38.597Z,97687.72
2022-10-08T10:24:22.939Z,97686.88
2022-10-08T10:26:56.677Z,97695.53
2022-10-08T10:29:30.115Z,97699.03
2022-10-08T10:32:03.777Z,97688.41
2022-10-08T10:34:36.372Z,97683.13
2022-10-08T10:37:08.266Z,97688.41
2022-10-08T10:39:42.956Z,97681.31
2022-10-08T10:42:16.829Z,97678.66
2022-10-08T10:44:54.040Z,97675.84
2022-10-08T10:47:31.632Z,97671.38
2022-10-08T10:50:02.101Z,97682.53
2022-10-08T10:52:42.835Z,97683.38
2022-10-08T10:55:21.718Z,97682.41
2022-10-08T10:58:10.855Z,97670.94
2022-10-08T11:00:47.194Z,97679.75
2022-10-08T11:03:20.412Z,97679.59
2022-10-08T11:05:52.609Z,97683.09
2022-10-08T11:08:31.288Z,97680.28
2022-10-08T11:11:11.582Z,97675.69
2022-10-08T11:13:52.649Z,97669.38
2022-10-08T11:16:34.970Z,97672.88
2022-10-08T11:19:05.861Z,97670.06
2022-10-08T11:21:49.268Z,97669.94
2022-10-08T11:24:29.259Z,97670.47
2022-10-08T11:27:02.223Z,97669.34
2022-10-08T11:29:35.536Z,97667.53
2022-10-08T11:32:12.681Z,97658.59
2022-10-08T11:34:44.800Z,97658.75
2022-10-08T11:37:17.451Z,97661.38
2022-10-08T11:39:53.029Z,97653.44
2022-10-08T11:42:27.130Z,97653.44
2022-10-08T11:44:55.925Z,97653.44
2022-10-08T11:47:55.268Z,97651.47
2022-10-08T11:50:28.130Z,97648.81
2022-10-08T11:52:59.133Z,97648.66
2022-10-08T11:55:32.350Z,97652.16
2022-10-08T11:58:08.094Z,97650.34
2022-10-08T12:00:40.739Z,97655.66
2022-10-08T12:03:23.404Z,97652.84
2022-10-08T12:05:54.812Z,97653.69
2022-10-08T12:08:48.975Z,97652.00
2022-10-08T12:11:54.808Z,97649.34
2022-10-08T12:14:47.811Z,97654.50
2022-10-08T12:17:17.125Z,97642.22
2022-10-08T12:20:03.455Z,97655.50
2022-10-08T12:22:46.993Z,97649.22
2022-10-08T12:25:39.783Z,97656.19
2022-10-08T12:28:54.042Z,97651.72
2022-10-08T12:31:29.649Z,97643.59
2022-10-08T12:34:02.705Z,97643.59
2022-10-08T12:36:40.560Z,97640.94
2022-10-08T12:39:14.846Z,97626.69
2022-10-08T12:41:52.406Z,97648.63
2022-10-08T12:44:31.970Z,97642.47
2022-10-08T12:47:07.261Z,97646.78
2022-10-08T12:49:39.003Z,97640.66
2022-10-08T12:52:11.292Z,97628.03
2022-10-08T12:54:41.441Z,97631.69
2022-10-08T12:57:11.964Z,97632.38
2022-10-08T12:59:41.523Z,97630.59
2022-10-08T13:02:28.594Z,97630.44
2022-10-08T13:04:57.141Z,97634.91
2022-10-08T13:07:29.680Z,97636.59
2022-10-08T13:09:59.695Z,97639.91
2022-10-08T13:12:28.438Z,97630.13
2022-10-08T13:15:01.273Z,97636.44
2022-10-08T13:17:31.330Z,97630.13
2022-10-08T13:20:08.045Z,97643.25
2022-10-08T13:22:38.180Z,97638.78
2022-10-08T13:25:28.081Z,97647.44
2022-10-08T13:28:14.010Z,97630.38
2022-10-08T13:30:44.619Z,97630.91
2022-10-08T13:33:17.655Z,97635.94
2022-10-08T13:35:52.962Z,97635.78
2022-10-08T13:38:26.098Z,97644.59
2022-10-08T13:40:58.477Z,97636.47
2022-10-08T13:43:27.205Z,97642.63
2022-10-08T13:45:55.697Z,97639.81
2022-10-08T13:48:24.337Z,97642.16
2022-10-08T13:50:53.401Z,97650.00
2022-10-08T13:53:24.435Z,97635.88
2022-10-08T13:55:52.831Z,97635.88
2022-10-08T13:58:21.680Z,97649.00
2022-10-08T14:00:50.503Z,97648.84
2022-10-08T14:03:18.950Z,97649.69
2022-10-08T14:05:48.736Z,97653.03
2022-10-08T14:08:19.056Z,97653.41
2022-10-08T14:10:49.096Z,97643.78
2022-10-08T14:13:18.026Z,97646.13
2022-10-08T14:15:46.635Z,97642.50
2022-10-08T14:18:15.237Z,97646.69
2022-10-08T14:20:43.808Z,97647.81
2022-10-08T14:23:14.119Z,97642.78
2022-10-08T14:25:42.575Z,97646.97
2022-10-08T14:28:13.511Z,97651.75
2022-10-08T14:30:42.034Z,97654.25
2022-10-08T14:33:11.799Z,97653.41
2022-10-08T14:35:40.634Z,97658.03
2022-10-08T14:38:09.836Z,97664.88
2022-10-08T14:40:39.155Z,97660.41
2022-10-08T14:43:07.831Z,97664.59
2022-10-08T14:45:37.922Z,97664.59
2022-10-08T14:48:06.491Z,97661.25
2022-10-08T14:50:35.027Z,97664.72
2022-10-08T14:53:04.061Z,97662.06
2022-10-08T14:55:41.041Z,97671.03
2022-10-08T14:58:21.432Z,97676.34
2022-10-08T15:00:55.249Z,97679.00
2022-10-08T15:03:24.304Z,97685.00
2022-10-08T15:05:54.327Z,97684.16
2022-10-08T15:08:22.832Z,97682.19
2022-10-08T15:10:51.320Z,97683.56
2022-10-08T15:13:20.005Z,97682.72
2022-10-08T15:15:48.554Z,97688.19
2022-10-08T15:18:19.422Z,97688.19
2022-10-08T15:20:54.961Z,97689.19
2022-10-08T15:23:23.893Z,97693.66
2022-10-08T15:25:57.244Z,97698.97
2022-10-08T15:28:27.989Z,97702.59
2022-10-08T15:31:08.897Z,97700.94
2022-10-08T15:33:43.308Z,97702.91
2022-10-08T15:36:19.273Z,97709.19
2022-10-08T15:38:48.614Z,97704.88
2022-10-08T15:41:18.275Z,97702.22
2022-10-08T15:43:47.163Z,97716.47
2022-10-08T15:46:17.725Z,97710.88
2022-10-08T15:48:54.444Z,97717.84
2022-10-08T15:51:24.075Z,97714.50
2022-10-08T15:53:52.653Z,97718.69
2022-10-08T15:56:21.233Z,97725.53
2022-10-08T15:58:51.263Z,97725.22
2022-10-08T16:01:23.255Z,97727.06
2022-10-08T16:03:55.567Z,97723.56
2022-10-08T16:06:26.103Z,97725.38
2022-10-08T16:08:54.700Z,97725.69
2022-10-08T16:11:25.749Z,97735.47
2022-10-08T16:13:56.735Z,97743.44
2022-10-08T16:16:25.642Z,97744.41
2022-10-08T16:18:58.278Z,97744.56
2022-10-08T16:21:27.251Z,97747.22
2022-10-08T16:23:56.671Z,97748.19
2022-10-08T16:26:26.205Z,97754.34
2022-10-08T16:28:56.401Z,97751.00
2022-10-08T16:31:26.381Z,97743.19
2022-10-08T16:33:57.660Z,97749.34
2022-10-08T16:36:27.212Z,97751.31
2022-10-08T16:38:56.492Z,97749.63
2022-10-08T16:41:26.370Z,97754.94
2022-10-08T16:43:56.476Z,97762.06
2022-10-08T16:46:27.502Z,97760.25
2022-10-08T16:48:59.409Z,97758.56
2022-10-08T16:51:29.813Z,97777.16
2022-10-08T16:53:59.740Z,97780.81
2022-10-08T16:56:30.833Z,97779.13
2022-10-08T16:59:01.324Z,97782.78
2022-10-08T17:01:30.441Z,97781.78
2022-10-08T17:04:00.704Z,97788.09
2022-10-08T17:06:30.046Z,97790.88
2022-10-08T17:08:59.124Z,97790.03
2022-10-08T17:11:27.572Z,97799.81
2022-10-08T17:13:57.923Z,97799.97
2022-10-08T17:16:28.117Z,97796.34
2022-10-08T17:18:58.108Z,97810.59
2022-10-08T17:21:29.599Z,97813.25
2022-10-08T17:23:58.577Z,97816.88
2022-10-08T17:26:28.629Z,97808.09
2022-10-08T17:28:57.382Z,97817.88
2022-10-08T17:31:28.844Z,97821.50
2022-10-08T17:33:57.450Z,97825.16
2022-10-08T17:36:28.502Z,97830.44
2022-10-08T17:38:58.841Z,97838.56
2022-10-08T17:41:28.521Z,97843.88
2022-10-08T17:43:58.571Z,97849.19
2022-10-08T17:46:29.310Z,97854.50
2022-10-08T17:48:58.998Z,97860.78
2022-10-08T17:51:30.171Z,97858.28
2022-10-08T17:54:00.421Z,97867.91
2022-10-08T17:56:29.542Z,97866.25
2022-10-08T17:58:58.766Z,97874.19
2022-10-08T18:01:29.238Z,97870.72
2022-10-08T18:03:59.958Z,97882.16
2022-10-08T18:06:30.928Z,97875.19
2022-10-08T18:09:01.057Z,97885.81
2022-10-08T18:11:31.511Z,97889.44
2022-10-08T18:14:00.671Z,97892.25
2022-10-08T18:16:29.503Z,97894.06
2022-10-08T18:18:58.084Z,97906.34
2022-10-08T18:21:27.429Z,97911.66
2022-10-08T18:23:59.059Z,97911.81
2022-10-08T18:26:28.766Z,97926.06
2022-10-08T18:28:58.432Z,97929.69
2022-10-08T18:31:28.677Z,97933.19
2022-10-08T18:33:59.899Z,97931.50
2022-10-08T18:36:30.088Z,97929.69
2022-10-08T18:39:01.551Z,97932.47
2022-10-08T18:41:31.501Z,97927.19
2022-10-08T18:44:00.774Z,97934.31
2022-10-08T18:46:29.847Z,97933.47
2022-10-08T18:48:58.471Z,97935.28
2022-10-08T18:51:28.484Z,97940.59
2022-10-08T18:53:58.286Z,97945.06
2022-10-08T18:56:29.737Z,97939.75
2022-10-08T18:58:59.489Z,97954.84
2022-10-08T19:01:29.939Z,97948.00
2022-10-08T19:03:59.962Z,97954.97
2022-10-08T19:06:31.378Z,97959.44
2022-10-08T19:09:01.487Z,97965.88
2022-10-08T19:11:33.828Z,97967.56
2022-10-08T19:14:02.720Z,97971.88
2022-10-08T19:16:31.541Z,97977.44
2022-10-08T19:19:02.403Z,97982.75
2022-10-08T19:21:32.304Z,97979.25
2022-10-08T19:24:01.335Z,97981.06
2022-10-08T19:26:31.503Z,97984.72
2022-10-08T19:29:01.396Z,97983.88
2022-10-08T19:31:31.595Z,97986.69
2022-10-08T19:34:01.371Z,98001.91
2022-10-08T19:36:32.434Z,97993.97
2022-10-08T19:39:02.194Z,98002.91
2022-10-08T19:41:32.305Z,97999.53
2022-10-08T19:44:01.577Z,98005.69
2022-10-08T19:46:31.090Z,98018.13
2022-10-08T19:49:01.872Z,98019.94
2022-10-08T19:51:31.859Z,98024.41
2022-10-08T19:54:01.716Z,98028.03
2022-10-08T19:56:32.040Z,98028.16
2022-10-08T19:59:01.901Z,98028.16
2022-10-08T20:01:32.638Z,98029.16
2022-10-08T20:04:02.608Z,98035.28
2022-10-08T20:06:32.810Z,98040.59
2022-10-08T20:09:03.083Z,98038.09
2022-10-08T20:11:33.791Z,98046.88
2022-10-08T20:14:02.522Z,98046.03
2022-10-08T20:16:32.366Z,98047.03
2022-10-08T20:19:02.463Z,98047.88
2022-10-08T20:21:33.669Z,98047.03
2022-10-08T20:24:02.597Z,98053.16
2022-10-08T20:26:33.374Z,98056.81
2022-10-08T20:29:04.070Z,98057.78
2022-10-08T20:31:34.152Z,98060.44
2022-10-08T20:34:03.942Z,98065.03
2022-10-08T20:36:33.198Z,98064.06
2022-10-08T20:39:02.043Z,98065.88
2022-10-08T20:41:31.531Z,98068.53
2022-10-08T20:44:03.092Z,98072.16
2022-10-08T20:46:32.617Z,98067.97
2022-10-08T20:49:01.584Z,98072.28
2022-10-08T20:51:31.049Z,98078.56
2022-10-08T20:54:01.581Z,98080.38
2022-10-08T20:56:34.712Z,98075.91
2022-10-08T20:59:07.928Z,98083.88
2022-10-08T21:01:39.047Z,98083.19
2022-10-08T21:04:08.525Z,98088.47
2022-10-08T21:06:39.176Z,98092.94
2022-10-08T21:09:07.977Z,98087.78
2022-10-08T21:11:37.324Z,98090.44
2022-10-08T21:14:08.939Z,98087.78
2022-10-08T21:16:39.335Z,98093.91
2022-10-08T21:19:09.100Z,98088.75
2022-10-08T21:21:37.660Z,98094.06
2022-10-08T21:24:06.847Z,98088.88
2022-10-08T21:26:37.210Z,98096.97
2022-10-08T21:29:08.882Z,98096.97
2022-10-08T21:31:39.576Z,98101.44
2022-10-08T21:34:08.583Z,98106.75
2022-10-08T21:36:38.651Z,98105.91
2022-10-08T21:39:08.925Z,98110.38
2022-10-08T21:41:38.428Z,98105.06
2022-10-08T21:44:09.242Z,98106.06
2022-10-08T21:46:40.219Z,98118.47
2022-10-08T21:49:11.694Z,98116.78
2022-10-08T21:51:40.204Z,98117.63
2022-10-08T21:54:10.727Z,98111.50
2022-10-08T21:56:40.293Z,98116.09
2022-10-08T21:59:12.514Z,98124.75
2022-10-08T22:01:42.581Z,98115.13
2022-10-08T22:04:12.468Z,98121.41
2022-10-08T22:06:43.038Z,98114.53
2022-10-08T22:09:13.953Z,98128.66
2022-10-08T22:11:42.992Z,98126.97
2022-10-08T22:14:12.935Z,98117.31
2022-10-08T22:16:41.607Z,98117.31
2022-10-08T22:19:10.175Z,98112.03
2022-10-08T22:21:38.972Z,98116.50
2022-10-08T22:24:07.667Z,98118.31
2022-10-08T22:26:37.750Z,98118.44
2022-10-08T22:29:06.805Z,98113.13
2022-10-08T22:31:36.963Z,98116.75
2022-10-08T22:34:05.646Z,98122.91
2022-10-08T22:36:37.640Z,98123.03
2022-10-08T22:39:06.533Z,98124.84
2022-10-08T22:41:35.478Z,98124.84
2022-10-08T22:44:04.905Z,98125.69
2022-10-08T22:46:38.645Z,98131.13
2022-10-08T22:49:08.811Z,98139.09
2022-10-08T22:51:37.898Z,98132.09
2022-10-08T22:54:06.553Z,98131.25
2022-10-08T22:56:37.799Z,98130.41
2022-10-08T22:59:06.246Z,98131.38
2022-10-08T23:01:34.850Z,98120.78
2022-10-08T23:04:04.762Z,98128.72
2022-10-08T23:06:34.731Z,98129.56
2022-10-08T23:09:06.072Z,98124.41
2022-10-08T23:11:35.182Z,98135.97
2022-10-08T23:14:04.132Z,98119.22
2022-10-08T23:16:33.926Z,98125.38
2022-10-08T23:19:05.798Z,98118.38
2022-10-08T23:21:34.608Z,98127.31
2022-10-08T23:24:03.380Z,98129.97
2022-10-08T23:26:32.306Z,98118.53
2022-10-08T23:29:01.727Z,98121.16
2022-10-08T23:31:31.777Z,98125.78
2022-10-08T23:34:01.065Z,98130.22
2022-10-08T23:36:32.847Z,98135.53
2022-10-08T23:39:01.742Z,98132.03
2022-10-08T23:41:30.185Z,98131.22
2022-10-08T23:43:59.162Z,98129.53
2022-10-08T23:46:29.109Z,98138.44
2022-10-08T23:48:58.350Z,98138.44
2022-10-08T23:51:28.133Z,98135.81
2022-10-08T23:53:58.094Z,98133.16
2022-10-08T23:56:26.583Z,98135.94
2022-10-08T23:58:55.065Z,98145.69
